Time;durP1;ratioP1;P1;durP2;ratioP2;P2;SDS_P1;SDS_P2;PMS_P1;PMS_P2;Temp;Humidity;BMP_temperature;BMP_pressure;BME280_temperature;BME280_humidity;BME280_pressure;Samples;Min_cycle;Max_cycle;Signal;HPM_P1;HPM_P2
2021/01/06 00:01:27;;;;;;;8.02;5.38;;;3.80;99.90;;;3.48;100.00;101909.97;5036885;28;20075;-74
2021/01/06 00:03:53;;;;;;;7.50;5.65;;;3.70;99.90;;;3.63;99.67;101908.66;5023626;28;20037;-74
2021/01/06 00:06:28;;;;;;;8.88;4.68;;;3.80;99.90;;;3.40;99.81;101917.81;5048633;28;20037;-73
2021/01/06 00:08:55;;;;;;;6.38;4.72;;;3.70;99.90;;;3.28;100.00;101916.97;5040787;28;20045;-76
2021/01/06 00:11:30;;;;;;;5.60;4.30;;;3.70;99.90;;;3.43;100.00;101909.47;5032031;28;20032;-74
2021/01/06 00:13:55;;;;;;;7.10;4.55;;;3.60;99.90;;;3.48;100.00;101923.44;5030069;28;20042;-76
2021/01/06 00:16:21;;;;;;;8.93;4.50;;;3.60;99.90;;;3.41;99.77;101920.38;5015436;28;20107;-78
2021/01/06 00:18:47;;;;;;;7.35;5.60;;;3.70;99.90;;;3.37;99.91;101915.38;5004201;28;20057;-75
2021/01/06 00:21:13;;;;;;;6.38;4.30;;;3.70;99.90;;;3.37;99.83;101931.53;5052697;28;20029;-77
2021/01/06 00:23:39;;;;;;;6.60;5.10;;;3.70;99.90;;;3.52;99.48;101919.47;5036624;28;20042;-79
2021/01/06 00:26:04;;;;;;;13.25;5.05;;;3.70;99.90;;;3.36;99.90;101921.75;5045668;28;20033;-80
2021/01/06 00:28:30;;;;;;;7.50;4.90;;;3.70;99.90;;;3.29;99.71;101929.47;5045606;28;20068;-79
2021/01/06 00:30:59;;;;;;;10.05;4.72;;;3.60;99.90;;;3.32;99.89;101913.06;5043287;28;20059;-76
2021/01/06 00:33:29;;;;;;;6.35;4.30;;;3.60;99.90;;;3.26;99.61;101925.22;5010006;28;20511;-79
2021/01/06 00:36:11;;;;;;;6.50;4.55;;;3.60;99.90;;;3.27;99.78;101924.19;5017138;28;20113;-78
2021/01/06 00:38:38;;;;;;;6.80;4.45;;;3.60;99.90;;;3.26;99.81;101930.59;5019401;28;20494;-76
2021/01/06 00:41:05;;;;;;;6.85;4.68;;;3.60;99.90;;;3.36;99.28;101913.69;5045592;28;20448;-78
2021/01/06 00:43:31;;;;;;;6.63;4.00;;;3.60;99.90;;;3.43;98.93;101914.88;5011511;28;20057;-77
2021/01/06 00:45:57;;;;;;;5.72;4.28;;;3.60;99.90;;;3.41;98.85;101916.81;5034790;28;20037;-72
2021/01/06 00:48:23;;;;;;;6.13;4.65;;;3.60;99.90;;;3.40;99.34;101917.81;5055710;28;20052;-76
2021/01/06 00:50:49;;;;;;;9.30;4.47;;;3.80;99.90;;;3.51;98.45;101912.38;5052478;28;20187;-76
2021/01/06 00:53:23;;;;;;;5.93;4.68;;;3.60;99.90;;;3.50;98.10;101910.69;5051773;28;20029;-76
2021/01/06 00:55:51;;;;;;;6.50;4.85;;;3.60;99.90;;;3.35;98.53;101911.97;5057986;28;20124;-76
2021/01/06 00:58:18;;;;;;;5.82;4.43;;;3.60;99.90;;;3.39;98.40;101902.63;5052848;28;20033;-75
2021/01/06 01:00:44;;;;;;;9.30;4.88;;;3.60;99.90;;;3.34;98.59;101924.56;5045622;28;20036;-76
2021/01/06 01:03:11;;;;;;;6.05;3.95;;;3.50;99.90;;;3.22;98.77;101923.75;5031451;28;20034;-76
2021/01/06 01:05:37;;;;;;;7.38;4.72;;;3.50;99.90;;;3.20;98.59;101925.69;5013534;28;20487;-77
2021/01/06 01:08:06;;;;;;;5.80;4.18;;;3.50;99.90;;;3.17;99.22;101920.56;5031267;28;20139;-80
2021/01/06 01:10:48;;;;;;;8.32;4.75;;;3.50;99.90;;;3.23;99.28;101917.38;5052927;28;20047;-74
2021/01/06 01:13:25;;;;;;;7.40;4.65;;;3.50;99.90;;;3.18;99.31;101933.03;5050663;28;20052;-72
2021/01/06 01:15:54;;;;;;;7.05;4.78;;;3.40;99.90;;;3.02;99.71;101920.97;5018557;28;20036;-73
2021/01/06 01:18:28;;;;;;;6.30;4.68;;;3.40;99.90;;;3.20;99.66;101914.09;5029669;28;20451;-73
2021/01/06 01:20:58;;;;;;;7.93;5.57;;;3.40;99.90;;;3.11;99.88;101910.31;5025734;28;20065;-74
2021/01/06 01:23:28;;;;;;;6.20;5.03;;;3.30;99.90;;;3.11;99.56;101915.69;5048897;28;20052;-79
2021/01/06 01:25:56;;;;;;;9.18;5.53;;;3.40;99.90;;;3.11;100.00;101926.47;5037467;28;20038;-73
2021/01/06 01:28:23;;;;;;;8.13;5.13;;;3.40;99.90;;;3.24;99.78;101921.78;5034819;28;20353;-75
2021/01/06 01:30:51;;;;;;;8.55;5.05;;;3.40;99.90;;;3.14;100.00;101915.47;5037520;28;20048;-75
2021/01/06 01:33:23;;;;;;;5.85;4.22;;;3.40;99.90;;;3.04;100.00;101925.25;5035110;28;20029;-81
2021/01/06 01:35:50;;;;;;;5.70;4.43;;;3.30;99.90;;;2.97;100.00;101918.66;5031127;28;20068;-75
2021/01/06 01:38:22;;;;;;;5.32;4.53;;;3.30;99.90;;;2.98;100.00;101925.75;5034696;28;20061;-74
2021/01/06 01:40:54;;;;;;;10.95;4.80;;;3.20;99.90;;;2.91;100.00;101938.00;5049491;28;20076;-73
2021/01/06 01:43:21;;;;;;;6.57;4.82;;;3.20;99.90;;;2.90;100.00;101922.84;5024700;28;20440;-79
2021/01/06 01:45:49;;;;;;;8.10;6.03;;;3.20;99.90;;;2.94;100.00;101918.91;5015432;28;20029;-76
2021/01/06 01:48:41;;;;;;;7.70;5.05;;;3.20;99.90;;;3.01;100.00;101912.06;5037627;28;20041;-79
2021/01/06 01:51:41;;;;;;;6.72;5.00;;;3.20;99.90;;;2.80;100.00;101906.59;5030713;28;20424;-73
2021/01/06 01:54:13;;;;;;;10.00;5.05;;;3.10;99.90;;;2.89;100.00;101913.06;5026898;28;20037;-72
2021/01/06 01:57:12;;;;;;;7.28;4.93;;;3.10;99.90;;;2.77;100.00;101916.72;5031408;28;20037;-73
2021/01/06 02:00:27;;;;;;;6.82;4.63;;;3.10;99.90;;;2.61;100.00;101921.63;5026521;28;20037;-73
2021/01/06 02:02:58;;;;;;;10.23;5.43;;;2.90;99.90;;;2.70;100.00;101926.28;5006276;28;20037;-77
2021/01/06 02:05:37;;;;;;;9.65;4.97;;;2.90;99.90;;;2.75;100.00;101924.91;5039483;28;20029;-74
2021/01/06 02:08:20;;;;;;;8.88;5.32;;;3.00;99.90;;;2.65;99.89;101923.09;5027167;28;20114;-73
2021/01/06 02:10:57;;;;;;;5.28;3.78;;;2.90;99.90;;;2.52;99.59;101929.44;5031335;28;20045;-73
2021/01/06 02:13:49;;;;;;;5.45;4.18;;;2.80;99.90;;;2.62;99.58;101924.19;5050385;28;20120;-75
2021/01/06 02:16:32;;;;;;;5.47;3.88;;;2.80;99.90;;;2.57;99.81;101917.47;5040544;28;20025;-73
2021/01/06 02:18:58;;;;;;;6.10;3.92;;;3.00;99.90;;;2.61;99.85;101927.00;5038619;28;20160;-73
2021/01/06 02:21:27;;;;;;;8.65;4.45;;;2.80;99.90;;;2.62;100.00;101918.81;5035463;28;20087;-72
2021/01/06 02:23:57;;;;;;;4.25;3.60;;;2.80;99.90;;;2.49;99.26;101913.56;5024239;28;20068;-73
2021/01/06 02:26:27;;;;;;;7.53;3.67;;;2.80;99.90;;;2.45;99.67;101914.78;5048714;28;20025;-76
2021/01/06 02:28:55;;;;;;;7.63;4.07;;;2.70;99.90;;;2.36;99.38;101928.97;5051315;28;20037;-74
2021/01/06 02:31:22;;;;;;;5.97;4.03;;;2.70;99.90;;;2.20;99.95;101915.00;5023646;28;20041;-73
2021/01/06 02:33:51;;;;;;;10.35;5.18;;;2.60;99.90;;;2.25;100.00;101915.50;5019062;28;20040;-75
2021/01/06 02:36:19;;;;;;;7.45;3.83;;;2.50;99.90;;;2.30;99.99;101907.94;5035709;28;20176;-73
2021/01/06 02:38:45;;;;;;;10.13;3.92;;;2.50;99.90;;;2.24;99.65;101924.53;5037309;28;20037;-73
2021/01/06 02:41:12;;;;;;;7.22;4.13;;;2.50;99.90;;;2.03;99.98;101908.25;5048284;28;20466;-74
2021/01/06 02:43:39;;;;;;;16.83;4.55;;;2.40;99.90;;;2.05;100.00;101909.00;5047217;28;20103;-73
2021/01/06 02:46:09;;;;;;;8.15;4.57;;;2.30;99.90;;;2.16;100.00;101905.47;5060587;28;20033;-72
2021/01/06 02:48:37;;;;;;;11.82;4.22;;;2.30;99.90;;;2.10;100.00;101911.34;5024206;28;20056;-73
2021/01/06 02:51:17;;;;;;;5.68;3.67;;;2.30;99.90;;;2.12;100.00;101915.63;5049810;28;20029;-72
2021/01/06 02:53:53;;;;;;;8.32;4.38;;;2.30;99.90;;;2.11;100.00;101913.03;5033624;28;20049;-73
2021/01/06 02:56:21;;;;;;;6.20;4.00;;;2.30;99.90;;;1.98;100.00;101905.09;5052789;28;20470;-73
2021/01/06 02:58:49;;;;;;;4.18;3.15;;;2.30;99.90;;;2.03;100.00;101910.94;5046568;28;20067;-72
2021/01/06 03:01:20;;;;;;;4.82;3.58;;;2.20;99.90;;;2.04;100.00;101906.41;5020111;28;20076;-74
2021/01/06 03:03:49;;;;;;;5.78;3.70;;;2.30;99.90;;;2.04;100.00;101906.41;5046469;28;20044;-74
2021/01/06 03:06:33;;;;;;;7.28;3.58;;;2.20;99.90;;;2.10;100.00;101897.91;5049398;28;20499;-72
2021/01/06 03:09:01;;;;;;;4.60;3.67;;;2.20;99.90;;;2.03;100.00;101902.06;5042124;28;20045;-73
2021/01/06 03:11:27;;;;;;;4.80;3.25;;;2.20;99.90;;;2.10;100.00;101898.75;5050605;28;20503;-73
2021/01/06 03:13:52;;;;;;;7.03;3.50;;;2.20;99.90;;;2.01;100.00;101902.16;5018165;28;20041;-72
2021/01/06 03:16:18;;;;;;;5.72;3.30;;;2.20;99.90;;;2.06;100.00;101904.47;4998526;28;20059;-73
2021/01/06 03:18:44;;;;;;;6.25;3.97;;;2.20;99.90;;;2.10;100.00;101905.97;5028791;28;20037;-73
2021/01/06 03:21:10;;;;;;;5.38;2.97;;;2.20;99.90;;;2.07;100.00;101900.81;5037184;28;20427;-75
2021/01/06 03:23:47;;;;;;;8.40;4.07;;;2.20;99.90;;;2.03;100.00;101904.75;5014829;28;20446;-72
2021/01/06 03:26:18;;;;;;;5.70;3.65;;;2.20;99.90;;;2.07;100.00;101906.19;5054076;28;20502;-72
2021/01/06 03:28:46;;;;;;;6.13;3.13;;;2.20;99.90;;;1.99;100.00;101895.19;5037527;28;20040;-74
2021/01/06 03:31:50;;;;;;;6.32;3.17;;;2.20;99.90;;;2.06;100.00;101893.72;5020739;28;20045;-74
2021/01/06 03:34:27;;;;;;;6.00;4.30;;;2.30;99.90;;;1.99;100.00;101898.75;5015831;28;20415;-74
2021/01/06 03:37:09;;;;;;;6.90;3.83;;;2.20;99.90;;;1.94;100.00;101878.56;5037342;28;20033;-71
2021/01/06 03:39:43;;;;;;;3.75;2.65;;;2.20;99.90;;;2.04;100.00;101883.13;5022342;28;20088;-75
2021/01/06 03:42:13;;;;;;;4.40;2.75;;;2.20;99.90;;;1.93;100.00;101876.88;5026593;28;20041;-80
2021/01/06 03:44:39;;;;;;;5.45;2.67;;;2.20;99.90;;;2.00;100.00;101878.13;5055007;28;20037;-77
2021/01/06 03:47:25;;;;;;;11.13;2.97;;;2.20;99.90;;;2.02;100.00;101881.53;5035628;28;20164;-75
2021/01/06 03:50:04;;;;;;;4.72;2.40;;;2.20;99.90;;;2.03;100.00;101872.50;5035360;28;20156;-75
2021/01/06 03:53:03;;;;;;;5.05;2.95;;;2.20;99.90;;;1.99;100.00;101873.72;5041753;28;20074;-78
2021/01/06 03:55:56;;;;;;;5.70;3.20;;;2.20;99.90;;;2.02;100.00;101870.81;5033876;28;20025;-74
2021/01/06 03:58:36;;;;;;;4.20;2.70;;;2.20;99.90;;;2.06;100.00;101861.50;5033764;28;20069;-80
2021/01/06 04:01:17;;;;;;;5.72;3.03;;;2.20;99.90;;;2.01;100.00;101874.47;5043033;28;20041;-82
2021/01/06 04:04:21;;;;;;;7.72;2.88;;;2.20;99.90;;;2.03;100.00;101861.78;5036631;28;20037;-82
2021/01/06 04:06:51;;;;;;;3.42;2.35;;;2.20;99.90;;;2.02;100.00;101866.28;5012623;28;20048;-81
2021/01/06 04:09:36;;;;;;;4.35;2.83;;;2.20;99.90;;;2.12;100.00;101861.03;5016032;28;20034;-74
2021/01/06 04:12:10;;;;;;;6.68;3.30;;;2.20;99.90;;;2.03;100.00;101856.41;5038948;28;20487;-73
2021/01/06 04:14:37;;;;;;;5.90;2.75;;;2.20;99.90;;;2.03;100.00;101870.66;5047403;28;20032;-74
2021/01/06 04:17:16;;;;;;;4.97;3.20;;;2.20;99.90;;;2.03;100.00;101862.59;5030139;28;20018;-74
2021/01/06 04:19:49;;;;;;;4.68;2.58;;;2.20;99.90;;;1.98;100.00;101863.94;5019224;28;20028;-72
2021/01/06 04:22:21;;;;;;;4.85;2.88;;;2.20;99.90;;;2.02;100.00;101854.69;5031985;28;20468;-75
2021/01/06 04:24:46;;;;;;;5.75;3.25;;;2.20;99.90;;;1.99;100.00;101854.94;5048432;28;20042;-73
2021/01/06 04:27:18;;;;;;;5.13;2.83;;;2.20;99.90;;;2.00;100.00;101856.63;5032259;28;20040;-75
2021/01/06 04:29:46;;;;;;;7.35;3.38;;;2.20;99.90;;;1.96;100.00;101849.78;5045399;28;20060;-75
2021/01/06 04:32:11;;;;;;;3.72;2.38;;;2.20;99.90;;;1.96;100.00;101842.59;5046912;28;20444;-74
2021/01/06 04:34:37;;;;;;;6.38;2.80;;;2.20;99.90;;;1.93;100.00;101850.03;5005733;28;20024;-76
2021/01/06 04:37:03;;;;;;;3.53;2.55;;;2.20;99.90;;;1.96;100.00;101845.28;5036137;28;20045;-76
2021/01/06 04:39:29;;;;;;;3.63;2.45;;;2.10;99.90;;;1.97;100.00;101843.44;5013662;28;20409;-74
2021/01/06 04:42:03;;;;;;;4.22;3.08;;;2.10;99.90;;;1.97;100.00;101851.50;5029109;28;20132;-73
2021/01/06 04:44:59;;;;;;;4.78;2.88;;;2.10;99.90;;;2.06;100.00;101845.41;5028526;28;20095;-73
2021/01/06 04:47:54;;;;;;;8.93;3.45;;;2.10;99.90;;;1.95;100.00;101840.03;5038733;28;20099;-74
2021/01/06 04:50:40;;;;;;;4.30;2.95;;;2.10;99.90;;;1.99;100.00;101845.03;5046743;28;20479;-76
2021/01/06 04:53:28;;;;;;;5.43;2.85;;;2.10;99.90;;;1.96;100.00;101844.41;5032331;28;20034;-76
2021/01/06 04:56:12;;;;;;;5.53;3.15;;;2.10;99.90;;;1.92;100.00;101842.97;5048368;28;20045;-83
2021/01/06 04:59:04;;;;;;;5.93;3.10;;;2.10;99.90;;;1.91;100.00;101835.88;5048223;28;20029;-82
2021/01/06 05:02:19;;;;;;;7.90;3.83;;;2.10;99.90;;;1.88;100.00;101839.66;5037331;28;20045;-73
2021/01/06 05:05:37;;;;;;;3.33;2.72;;;2.10;99.90;;;1.83;100.00;101834.63;5027324;28;20055;-75
2021/01/06 05:08:41;;;;;;;5.60;2.70;;;2.10;99.90;;;1.90;100.00;101843.09;5031926;28;20033;-79
2021/01/06 05:11:34;;;;;;;11.23;3.95;;;2.10;99.90;;;1.95;100.00;101837.34;5045302;28;20037;-79
2021/01/06 05:14:00;;;;;;;8.50;2.97;;;2.10;99.90;;;1.96;100.00;101839.06;5031016;28;20045;-73
2021/01/06 05:16:34;;;;;;;4.78;2.70;;;2.10;99.90;;;1.98;100.00;101835.28;5045393;28;20030;-75
2021/01/06 05:19:01;;;;;;;5.28;2.90;;;2.10;99.90;;;1.90;100.00;101834.19;5048283;28;20033;-76
2021/01/06 05:21:29;;;;;;;5.05;3.25;;;2.10;99.90;;;1.98;100.00;101834.41;5023003;28;20046;-73
2021/01/06 05:24:11;;;;;;;5.18;3.03;;;2.10;99.90;;;1.94;100.00;101836.47;5047105;28;20030;-79
2021/01/06 05:26:37;;;;;;;6.50;3.05;;;2.10;99.90;;;1.77;100.00;101835.13;5041423;28;20527;-74
2021/01/06 05:29:18;;;;;;;4.60;3.25;;;2.00;99.90;;;1.85;100.00;101830.97;5048010;28;20038;-73
2021/01/06 05:31:43;;;;;;;3.45;2.15;;;2.00;99.90;;;1.66;100.00;101835.09;5038926;28;20087;-74
2021/01/06 05:34:09;;;;;;;7.68;3.53;;;2.00;99.90;;;1.64;100.00;101837.03;5012004;28;20041;-75
2021/01/06 05:36:35;;;;;;;3.88;2.80;;;1.90;99.90;;;1.62;100.00;101840.81;5014045;28;20159;-75
2021/01/06 05:39:22;;;;;;;4.18;2.88;;;1.80;99.90;;;1.59;100.00;101836.53;5031514;28;20048;-77
2021/01/06 05:41:56;;;;;;;4.47;2.67;;;1.80;99.90;;;1.58;100.00;101840.19;5038280;28;20037;-75
2021/01/06 05:44:23;;;;;;;13.90;3.17;;;1.80;99.90;;;1.58;100.00;101832.13;5044706;28;20048;-76
2021/01/06 05:46:49;;;;;;;9.20;4.18;;;1.70;99.90;;;1.58;100.00;101832.13;5034812;28;20136;-75
2021/01/06 05:49:31;;;;;;;7.20;4.32;;;1.70;99.90;;;1.48;100.00;101833.81;5025446;28;20041;-75
2021/01/06 05:52:08;;;;;;;7.63;3.40;;;1.70;99.90;;;1.56;100.00;101847.53;5049792;28;20083;-72
2021/01/06 05:55:07;;;;;;;8.23;3.55;;;1.70;99.90;;;1.67;100.00;101844.00;5032856;28;20026;-75
2021/01/06 05:57:33;;;;;;;6.22;3.25;;;1.70;99.90;;;1.69;100.00;101845.59;5028022;28;20033;-76
2021/01/06 06:00:27;;;;;;;5.40;3.00;;;1.80;99.90;;;1.89;100.00;101846.75;5033494;28;20032;-75
2021/01/06 06:03:35;;;;;;;6.35;3.50;;;1.80;99.90;;;1.73;100.00;101855.13;5026563;28;20076;-71
2021/01/06 06:06:34;;;;;;;6.63;4.03;;;1.90;99.90;;;1.91;100.00;101846.63;5033297;28;20116;-76
2021/01/06 06:09:59;;;;;;;6.97;3.67;;;2.00;99.90;;;1.86;100.00;101849.66;5042908;28;20527;-77
2021/01/06 06:12:49;;;;;;;5.60;3.53;;;2.00;99.90;;;1.79;100.00;101843.06;5031257;28;20084;-75
2021/01/06 06:15:47;;;;;;;7.03;3.08;;;2.00;99.90;;;1.91;100.00;101852.00;5034215;28;20025;-78
2021/01/06 06:18:49;;;;;;;4.68;3.72;;;2.00;99.90;;;2.00;100.00;101856.63;5039430;28;20034;-75
2021/01/06 06:21:46;;;;;;;9.05;2.85;;;2.10;99.90;;;2.09;100.00;101861.28;5030792;28;20033;-75
2021/01/06 06:24:49;;;;;;;4.00;2.92;;;2.10;99.90;;;2.02;99.64;101854.69;5009681;28;20038;-73
2021/01/06 06:28:01;;;;;;;4.65;3.25;;;2.20;99.90;;;2.04;99.48;101858.09;5014140;28;20045;-77
2021/01/06 06:30:51;;;;;;;5.07;3.28;;;2.20;99.90;;;2.02;99.50;101860.91;5001311;28;20075;-73
2021/01/06 06:33:30;;;;;;;6.07;3.45;;;2.20;99.90;;;2.13;98.69;101862.75;5031224;28;20088;-75
2021/01/06 06:36:09;;;;;;;5.65;3.80;;;2.30;99.90;;;2.17;99.00;101865.06;5045935;28;20064;-77
2021/01/06 06:38:46;;;;;;;6.10;3.47;;;2.30;99.90;;;2.31;98.25;101866.66;5045156;28;20065;-74
2021/01/06 06:41:21;;;;;;;5.15;3.13;;;2.30;99.90;;;2.27;98.35;101859.81;5040963;28;20411;-78
2021/01/06 06:43:52;;;;;;;13.55;4.40;;;2.30;99.90;;;2.33;98.80;101867.41;5048596;28;20046;-75
2021/01/06 06:46:38;;;;;;;7.38;4.43;;;2.40;99.90;;;2.43;98.11;101863.00;5040378;28;20063;-76
2021/01/06 06:49:54;;;;;;;5.50;4.38;;;2.40;99.90;;;2.24;98.48;101870.81;5049284;28;20057;-76
2021/01/06 06:53:29;;;;;;;6.53;3.60;;;2.40;99.90;;;2.34;98.08;101866.44;5041697;28;20111;-74
2021/01/06 06:56:35;;;;;;;4.15;3.05;;;2.50;99.90;;;2.42;97.85;101863.97;5022183;28;20451;-76
2021/01/06 06:59:20;;;;;;;6.97;3.20;;;2.50;99.90;;;2.58;97.97;101857.38;5029084;28;20034;-75
2021/01/06 07:01:49;;;;;;;8.02;4.05;;;2.60;99.90;;;2.35;98.47;101868.16;5038733;28;20041;-76
2021/01/06 07:04:24;;;;;;;6.38;3.83;;;2.60;99.90;;;2.45;97.81;101866.44;5024093;28;20047;-78
2021/01/06 07:06:54;;;;;;;5.88;3.70;;;2.60;99.90;;;2.41;98.68;101872.16;5033962;28;20104;-76
2021/01/06 07:09:31;;;;;;;4.45;2.70;;;2.60;99.90;;;2.27;98.93;101881.31;5039470;28;20072;-81
2021/01/06 07:12:12;;;;;;;5.05;3.40;;;2.60;99.90;;;2.52;98.31;101867.63;5037731;28;20116;-77
2021/01/06 07:14:57;;;;;;;4.18;3.50;;;2.60;99.90;;;2.41;98.76;101878.38;5037184;28;20049;-83
2021/01/06 07:17:38;;;;;;;10.27;3.85;;;2.60;99.90;;;2.45;98.53;101868.25;5049390;28;20071;-71
2021/01/06 07:20:11;;;;;;;7.97;4.10;;;2.60;99.90;;;2.36;98.60;101875.22;5019262;28;20491;-77
2021/01/06 07:22:52;;;;;;;6.57;4.53;;;2.60;99.90;;;2.42;98.80;101874.72;5037283;28;20029;-78
2021/01/06 07:25:35;;;;;;;6.53;3.83;;;2.60;99.90;;;2.40;98.45;101873.13;5051815;28;20040;-79
2021/01/06 07:28:05;;;;;;;6.57;3.72;;;2.60;99.90;;;2.29;99.22;101879.34;5038399;28;20035;-79
2021/01/06 07:30:39;;;;;;;5.65;3.42;;;2.60;99.90;;;2.35;98.73;101880.72;5033172;28;20037;-73
2021/01/06 07:33:38;;;;;;;4.75;3.63;;;2.60;99.90;;;2.58;98.08;101881.56;5037903;28;20039;-77
2021/01/06 07:36:13;;;;;;;6.60;3.15;;;2.60;99.90;;;2.53;97.77;101876.56;5012206;28;20041;-78
2021/01/06 07:38:41;;;;;;;5.35;3.53;;;2.60;99.90;;;2.41;98.62;101878.38;5036344;28;20067;-78
2021/01/06 07:41:07;;;;;;;5.07;3.33;;;2.60;99.90;;;2.31;99.13;101882.78;5031912;28;21765;-77
2021/01/06 07:43:36;;;;;;;6.82;3.72;;;2.60;99.90;;;2.22;99.39;101882.66;5043398;28;20104;-76
2021/01/06 07:46:22;;;;;;;8.00;4.32;;;2.50;99.90;;;2.42;98.83;101879.25;5035662;28;20042;-77
2021/01/06 07:49:34;;;;;;;5.57;3.65;;;2.50;99.90;;;2.43;98.29;101871.06;5051757;28;20232;-81
2021/01/06 07:52:32;;;;;;;8.23;3.97;;;2.50;99.90;;;2.39;98.33;101879.47;5027521;28;20034;-77
2021/01/06 07:55:29;;;;;;;5.40;3.63;;;2.50;99.90;;;2.32;98.65;101881.81;5040511;28;20037;-77
2021/01/06 07:58:16;;;;;;;7.18;3.88;;;2.50;99.90;;;2.32;98.81;101876.44;5034503;28;20721;-75
2021/01/06 08:01:07;;;;;;;6.45;4.05;;;2.50;99.90;;;2.29;98.72;101873.97;5037442;28;20038;-76
2021/01/06 08:03:56;;;;;;;4.68;3.50;;;2.50;99.90;;;2.42;98.59;101880.09;5036089;28;20051;-75
2021/01/06 08:06:41;;;;;;;6.85;4.00;;;2.50;99.90;;;2.31;99.39;101882.78;5037005;28;20041;-77
2021/01/06 08:09:08;;;;;;;8.80;4.07;;;2.50;99.90;;;2.34;99.48;101877.19;5054025;28;20032;-74
2021/01/06 08:11:46;;;;;;;5.13;4.18;;;2.50;99.90;;;2.24;99.71;101884.25;5040008;28;20044;-74
2021/01/06 08:14:30;;;;;;;6.88;4.18;;;2.50;99.90;;;2.30;99.54;101891.81;5049923;28;20033;-73
2021/01/06 08:17:25;;;;;;;7.15;3.63;;;2.50;99.90;;;2.32;99.38;101889.88;5038718;28;20050;-76
2021/01/06 08:20:09;;;;;;;8.23;4.22;;;2.60;99.90;;;2.47;99.34;101888.66;5035249;28;20040;-75
2021/01/06 08:22:56;;;;;;;6.63;3.58;;;2.60;99.90;;;2.53;98.74;101888.16;5034088;28;20111;-77
2021/01/06 08:25:31;;;;;;;8.98;4.72;;;2.60;99.90;;;2.64;98.50;101889.97;5037035;28;20032;-75
2021/01/06 08:27:57;;;;;;;7.18;4.53;;;2.70;99.90;;;2.46;98.65;101895.00;5033070;28;20445;-74
2021/01/06 08:30:28;;;;;;;11.15;4.03;;;2.80;99.90;;;2.61;98.74;101890.22;5002703;28;20030;-73
2021/01/06 08:33:13;;;;;;;4.82;3.35;;;2.80;99.90;;;2.48;98.55;101890.34;5043239;28;20032;-75
2021/01/06 08:35:50;;;;;;;7.47;4.00;;;2.70;99.90;;;2.58;98.62;101895.00;5016826;28;20518;-75
2021/01/06 08:38:32;;;;;;;7.63;4.10;;;2.70;99.90;;;2.69;98.63;101898.53;5039158;28;20156;-76
2021/01/06 08:41:34;;;;;;;8.90;4.75;;;2.70;99.90;;;2.86;97.75;101894.47;5041104;28;20029;-74
2021/01/06 08:44:02;;;;;;;7.93;3.85;;;2.90;99.90;;;2.95;97.72;101893.72;5014892;28;20062;-75
2021/01/06 08:46:32;;;;;;;5.32;3.78;;;2.90;99.90;;;2.91;97.45;101892.28;5029073;28;20030;-75
2021/01/06 08:49:29;;;;;;;9.00;3.90;;;3.00;99.90;;;2.98;97.60;101893.47;5033435;28;20394;-76
2021/01/06 08:52:17;;;;;;;8.20;4.03;;;2.90;99.90;;;3.07;97.29;101884.66;5046100;28;20571;-73
2021/01/06 08:55:01;;;;;;;7.75;4.53;;;3.00;99.90;;;2.85;97.04;101887.38;5012264;28;20045;-77
2021/01/06 08:57:33;;;;;;;8.00;3.75;;;3.10;99.90;;;2.86;97.56;101883.72;5020633;28;20103;-73
2021/01/06 09:00:24;;;;;;;6.40;3.85;;;3.10;99.90;;;2.94;97.42;101889.31;5029794;28;20029;-74
2021/01/06 09:03:00;;;;;;;8.52;3.80;;;3.00;99.90;;;3.09;96.67;101893.44;5039722;28;20044;-74
2021/01/06 09:05:53;;;;;;;5.45;3.45;;;3.00;99.90;;;2.86;97.35;101889.09;5030398;28;20545;-74
2021/01/06 09:08:26;;;;;;;10.20;4.53;;;3.00;99.90;;;2.94;96.91;101889.31;5037133;28;20071;-73
2021/01/06 09:11:07;;;;;;;5.10;3.63;;;3.00;99.90;;;3.01;97.35;101893.22;5034079;28;20037;-72
2021/01/06 09:14:09;;;;;;;4.75;3.67;;;3.00;99.90;;;3.14;97.35;101877.78;5035970;28;20029;-73
2021/01/06 09:16:51;;;;;;;10.07;4.70;;;3.10;99.90;;;3.18;96.51;101878.38;5035795;28;20028;-73
2021/01/06 09:19:35;;;;;;;6.55;3.88;;;3.20;99.90;;;2.98;96.87;101884.56;5030131;28;20037;-75
2021/01/06 09:22:03;;;;;;;5.85;4.07;;;3.20;99.90;;;2.99;96.77;101884.44;5037520;28;20108;-78
2021/01/06 09:24:33;;;;;;;6.43;4.15;;;3.20;99.90;;;3.03;97.20;101885.91;5030120;28;20041;-79
2021/01/06 09:27:04;;;;;;;8.93;4.70;;;3.20;99.90;;;3.09;96.79;101892.59;5012190;28;20044;-79
2021/01/06 09:29:38;;;;;;;5.07;3.92;;;3.20;99.90;;;3.20;96.29;101890.72;5021611;28;20041;-77
2021/01/06 09:32:14;;;;;;;7.80;5.03;;;3.20;99.90;;;3.42;95.95;101891.63;5018835;28;20039;-76
2021/01/06 09:34:48;;;;;;;11.88;5.53;;;3.30;99.90;;;3.35;96.79;101885.91;5027149;28;20033;-76
2021/01/06 09:37:29;;;;;;;;;;;3.40;99.90;;;3.43;95.79;101893.34;5025418;28;20483;-78
2021/01/06 09:40:18;;;;;;;6.78;4.25;;;3.50;99.90;;;3.54;94.51;101890.59;5039926;28;20441;-76
2021/01/06 09:42:49;;;;;;;6.82;3.92;;;3.60;99.90;;;3.55;95.40;101887.78;5039443;28;20068;-77
2021/01/06 09:45:24;;;;;;;7.13;3.97;;;3.70;99.90;;;3.40;95.71;101885.50;5053573;28;20036;-79
2021/01/06 09:47:55;;;;;;;8.68;4.70;;;3.60;99.90;;;3.15;96.94;101894.78;5035877;28;20049;-76
2021/01/06 09:50:26;;;;;;;6.68;3.80;;;3.50;99.90;;;3.32;96.19;101885.31;5015531;28;20041;-74
2021/01/06 09:52:53;;;;;;;5.75;3.50;;;3.60;99.90;;;3.38;96.83;101887.50;5020370;28;20147;-74
2021/01/06 09:55:23;;;;;;;6.72;3.97;;;3.50;99.90;;;3.37;96.83;101888.47;5034218;28;20038;-74
2021/01/06 09:58:02;;;;;;;16.77;4.53;;;3.60;99.90;;;3.24;96.56;101883.25;5027854;28;22072;-76
2021/01/06 10:00:41;;;;;;;5.40;3.85;;;3.60;99.90;;;3.43;96.21;101882.56;5004164;28;20028;-73
2021/01/06 10:03:08;;;;;;;5.35;3.67;;;3.60;99.90;;;3.78;94.58;101871.50;5037758;28;20128;-78
2021/01/06 10:06:22;;;;;;;6.47;3.28;;;3.80;99.90;;;3.85;94.17;101878.94;5032376;28;20515;-75
2021/01/06 10:09:01;;;;;;;7.63;3.67;;;3.80;99.90;;;3.63;94.19;101884.44;5024024;28;20128;-78
2021/01/06 10:11:55;;;;;;;11.73;4.82;;;3.90;99.90;;;3.57;94.22;101872.38;5029594;28;20073;-75
2021/01/06 10:14:48;;;;;;;8.68;3.92;;;3.80;99.90;;;3.57;94.46;101876.88;5034948;28;20112;-76
2021/01/06 10:17:25;;;;;;;7.97;3.92;;;3.90;99.90;;;3.85;93.10;101876.22;5029333;28;20559;-74
2021/01/06 10:20:25;;;;;;;7.22;4.22;;;3.90;99.90;;;3.79;92.75;101868.69;5014246;28;20042;-77
2021/01/06 10:22:59;;;;;;;8.90;3.35;;;4.00;99.90;;;3.78;92.68;101866.13;4986753;28;20052;-78
2021/01/06 10:25:55;;;;;;;9.38;4.07;;;4.00;99.90;;;4.05;91.37;101865.59;5011374;28;20034;-78
2021/01/06 10:28:20;;;;;;;7.13;4.55;;;4.10;99.90;;;3.93;92.24;101864.81;5007082;28;20037;-75
2021/01/06 10:31:11;;;;;;;5.68;3.15;;;4.30;99.90;;;4.11;90.83;101857.81;5035224;28;20055;-80
2021/01/06 10:34:10;;;;;;;6.57;3.33;;;4.20;99.90;;;3.91;91.89;101856.00;5047364;28;20048;-79
2021/01/06 10:37:03;;;;;;;8.30;3.10;;;4.20;99.90;;;3.86;91.02;101840.25;5040095;28;20033;-77
2021/01/06 10:39:45;;;;;;;10.82;3.20;;;4.20;99.90;;;4.06;90.17;101848.47;5039967;28;20099;-77
2021/01/06 10:42:36;;;;;;;8.63;3.67;;;4.30;99.90;;;4.15;89.96;101847.66;5037908;28;20033;-77
2021/01/06 10:45:13;;;;;;;7.45;3.13;;;4.20;99.90;;;3.84;91.06;101839.50;5046490;28;20136;-79
2021/01/06 10:47:51;;;;;;;7.22;3.00;;;4.20;99.90;;;4.07;91.00;101845.59;5033114;28;20036;-82
2021/01/06 10:50:26;;;;;;;7.07;3.15;;;4.30;99.90;;;4.18;89.74;101841.97;5012230;28;20052;-76
2021/01/06 10:53:25;;;;;;;9.35;3.47;;;4.30;99.90;;;4.35;88.85;101838.66;5041567;28;20037;-78
2021/01/06 10:56:10;;;;;;;4.50;2.95;;;4.60;99.90;;;4.36;89.29;101834.97;5045380;28;20098;-81
2021/01/06 10:59:28;;;;;;;5.63;3.03;;;4.30;99.90;;;4.14;89.99;101829.78;5040248;28;20069;-79
2021/01/06 11:02:31;;;;;;;5.78;3.20;;;4.60;99.90;;;4.11;89.48;101835.41;5055328;28;20041;-79
2021/01/06 11:05:03;;;;;;;4.30;2.88;;;4.40;99.90;;;4.19;90.00;101832.91;5044772;28;20044;-79
2021/01/06 11:07:52;;;;;;;7.45;3.55;;;4.40;99.90;;;4.41;89.93;101831.84;5049781;28;20029;-80
2021/01/06 11:10:57;;;;;;;6.80;3.03;;;4.50;99.90;;;4.65;88.02;101830.53;5029080;28;20037;-79
2021/01/06 11:14:16;;;;;;;7.13;3.67;;;4.60;99.90;;;4.70;87.58;101825.59;5041684;28;20561;-78